Time;durP1;ratioP1;P1;durP2;ratioP2;P2;SDS_P1;SDS_P2;PMS_P1;PMS_P2;Temp;Humidity;BMP_temperature;BMP_pressure;BME280_temperature;BME280_humidity;BME280_pressure;Samples;Min_cycle;Max_cycle;Signal;HPM_P1;HPM_P2
2023/08/25 00:01:17;;;;;;;8.73;7.82;;;19.50;99.90;;;;;;5083013;28;20040;-66
2023/08/25 00:03:43;;;;;;;8.35;7.45;;;19.50;99.90;;;;;;5086270;28;20519;-65
2023/08/25 00:06:09;;;;;;;8.75;7.95;;;19.50;99.90;;;;;;5099934;28;20023;-66
2023/08/25 00:08:36;;;;;;;12.55;8.93;;;19.50;99.90;;;;;;5117430;27;20049;-66
2023/08/25 00:11:02;;;;;;;8.18;7.38;;;19.50;99.90;;;;;;5103245;27;20040;-66
2023/08/25 00:13:27;;;;;;;10.93;9.50;;;19.40;99.90;;;;;;5083285;28;20046;-65
2023/08/25 00:15:53;;;;;;;8.52;7.80;;;19.50;99.90;;;;;;5087463;28;20039;-66
2023/08/25 00:18:18;;;;;;;10.32;8.70;;;19.40;99.90;;;;;;5103271;28;20075;-66
2023/08/25 00:20:44;;;;;;;9.48;8.57;;;19.40;99.90;;;;;;5100770;28;20068;-65
2023/08/25 00:23:10;;;;;;;9.65;8.75;;;19.40;99.90;;;;;;5101783;27;20410;-65
2023/08/25 00:25:36;;;;;;;10.88;8.85;;;19.50;99.90;;;;;;5100618;28;20149;-65
2023/08/25 00:28:01;;;;;;;10.05;8.27;;;19.40;99.90;;;;;;5103275;28;20049;-66
2023/08/25 00:30:27;;;;;;;10.90;9.88;;;19.50;99.90;;;;;;5082773;28;20071;-65
2023/08/25 00:32:52;;;;;;;11.13;9.10;;;19.50;99.90;;;;;;5115326;27;20075;-65
2023/08/25 00:35:18;;;;;;;10.73;9.77;;;19.40;99.90;;;;;;5082557;28;20051;-66
2023/08/25 00:37:44;;;;;;;11.50;10.27;;;19.50;99.90;;;;;;5102495;28;20032;-65
2023/08/25 00:40:10;;;;;;;11.10;9.93;;;19.40;99.90;;;;;;5080060;28;20717;-65
2023/08/25 00:42:36;;;;;;;10.52;9.52;;;19.40;99.90;;;;;;5104987;28;20483;-65
2023/08/25 00:45:01;;;;;;;11.82;10.48;;;19.40;99.90;;;;;;5081402;28;20083;-65
2023/08/25 00:47:28;;;;;;;11.80;10.40;;;19.40;99.90;;;;;;5081085;28;20058;-65
2023/08/25 00:49:55;;;;;;;12.55;11.35;;;19.40;99.90;;;;;;5100552;28;20039;-66
2023/08/25 00:52:22;;;;;;;12.60;11.27;;;19.40;99.90;;;;;;5084045;28;20132;-65
2023/08/25 00:54:51;;;;;;;11.63;10.35;;;19.40;99.90;;;;;;5091651;28;20200;-66
2023/08/25 00:57:17;;;;;;;11.60;10.50;;;19.40;99.90;;;;;;5099477;28;20068;-65
2023/08/25 00:59:45;;;;;;;11.68;10.57;;;19.40;99.90;;;;;;5101706;28;20074;-65
2023/08/25 01:02:11;;;;;;;13.55;11.02;;;19.40;99.90;;;;;;5105437;28;20032;-65
2023/08/25 01:04:37;;;;;;;12.50;10.52;;;19.40;99.90;;;;;;5101229;28;20032;-66
2023/08/25 01:07:02;;;;;;;11.73;10.57;;;19.50;99.90;;;;;;5101634;28;20042;-66
2023/08/25 01:09:28;;;;;;;12.90;10.82;;;19.50;99.90;;;;;;5083456;28;20040;-66
2023/08/25 01:12:07;;;;;;;12.02;10.98;;;19.50;99.90;;;;;;5103061;28;20692;-65
2023/08/25 01:14:46;;;;;;;11.88;10.75;;;19.50;99.90;;;;;;5100397;28;20036;-66
2023/08/25 01:17:30;;;;;;;13.48;12.27;;;19.60;99.90;;;;;;5100553;28;20115;-65
2023/08/25 01:20:06;;;;;;;12.05;10.88;;;19.50;99.90;;;;;;5082823;28;20070;-66
2023/08/25 01:22:37;;;;;;;13.07;11.85;;;19.50;99.90;;;;;;5099018;28;20055;-66
2023/08/25 01:25:25;;;;;;;13.27;11.98;;;19.50;99.90;;;;;;5100674;28;20040;-66
2023/08/25 01:27:51;;;;;;;13.10;11.95;;;19.60;99.90;;;;;;5101465;28;20775;-66
2023/08/25 01:30:17;;;;;;;12.18;11.23;;;19.50;99.90;;;;;;5083151;28;20054;-66
2023/08/25 01:32:43;;;;;;;13.57;12.27;;;19.50;99.90;;;;;;5084714;28;20398;-65
2023/08/25 01:35:14;;;;;;;11.85;10.75;;;19.50;99.90;;;;;;5100769;28;20051;-65
2023/08/25 01:37:47;;;;;;;13.35;11.65;;;19.50;99.90;;;;;;5100269;28;20054;-66
2023/08/25 01:40:30;;;;;;;14.40;12.02;;;19.50;99.90;;;;;;5103420;28;20470;-65
2023/08/25 01:42:56;;;;;;;13.60;12.43;;;19.50;99.90;;;;;;5102798;28;20048;-65
2023/08/25 01:45:22;;;;;;;12.88;11.63;;;19.50;99.90;;;;;;5082105;28;20162;-65
2023/08/25 01:47:50;;;;;;;12.60;11.30;;;19.40;99.90;;;;;;5101938;28;20059;-66
2023/08/25 01:50:19;;;;;;;12.25;11.05;;;19.40;99.90;;;;;;5081560;28;20659;-66
2023/08/25 01:52:45;;;;;;;12.43;11.43;;;19.40;99.90;;;;;;5100944;28;20031;-66
2023/08/25 01:55:10;;;;;;;14.02;12.43;;;19.40;99.90;;;;;;5088596;28;20067;-66
2023/08/25 01:57:36;;;;;;;13.98;12.13;;;19.40;99.90;;;;;;5088899;28;20144;-66
2023/08/25 02:00:03;;;;;;;15.77;14.38;;;19.40;99.90;;;;;;5088256;28;20040;-66
2023/08/25 02:02:29;;;;;;;15.88;14.18;;;19.40;99.90;;;;;;5087103;28;20043;-65
2023/08/25 02:04:54;;;;;;;16.15;14.55;;;19.40;99.90;;;;;;5104572;28;20397;-65
2023/08/25 02:07:20;;;;;;;21.77;14.35;;;19.40;99.90;;;;;;5089795;28;20040;-65
2023/08/25 02:09:45;;;;;;;16.85;15.38;;;19.30;99.90;;;;;;5106433;28;20053;-66
2023/08/25 02:12:11;;;;;;;16.10;14.50;;;19.30;99.90;;;;;;5107281;28;20036;-65
2023/08/25 02:14:36;;;;;;;16.08;14.48;;;19.30;99.90;;;;;;5087649;28;20146;-65
2023/08/25 02:17:02;;;;;;;18.52;15.60;;;19.30;99.90;;;;;;5103144;28;20036;-65
2023/08/25 02:19:28;;;;;;;17.65;15.90;;;19.30;99.90;;;;;;5109130;28;20043;-66
2023/08/25 02:21:53;;;;;;;19.17;17.17;;;19.30;99.90;;;;;;5087641;28;20435;-65
2023/08/25 02:24:19;;;;;;;13.88;12.63;;;19.20;99.90;;;;;;5103766;28;20039;-65
2023/08/25 02:26:44;;;;;;;16.73;15.02;;;19.20;99.90;;;;;;5087135;28;20046;-65
2023/08/25 02:29:10;;;;;;;20.13;18.08;;;19.20;99.90;;;;;;5104049;28;20031;-65
2023/08/25 02:31:36;;;;;;;19.75;17.83;;;19.20;99.90;;;;;;5123203;27;20035;-65
2023/08/25 02:34:01;;;;;;;20.75;18.65;;;19.20;99.90;;;;;;5102556;28;20036;-66
2023/08/25 02:36:27;;;;;;;22.55;19.70;;;19.20;99.90;;;;;;5102374;28;20071;-65
2023/08/25 02:38:52;;;;;;;22.23;19.92;;;19.20;99.90;;;;;;5085978;28;20035;-65
2023/08/25 02:41:18;;;;;;;23.48;21.13;;;19.10;99.90;;;;;;5092579;28;20044;-65
2023/08/25 02:43:43;;;;;;;25.23;22.75;;;19.10;99.90;;;;;;5105256;28;20038;-65
2023/08/25 02:46:10;;;;;;;26.95;24.42;;;19.10;99.90;;;;;;5084753;28;20036;-65
2023/08/25 02:48:36;;;;;;;25.55;22.88;;;19.20;99.90;;;;;;5121106;27;20086;-65
2023/08/25 02:51:01;;;;;;;26.42;23.63;;;19.20;99.90;;;;;;5104854;28;20063;-65
2023/08/25 02:53:27;;;;;;;28.52;25.40;;;19.30;99.90;;;;;;5087281;28;20474;-65
2023/08/25 02:55:52;;;;;;;27.38;24.65;;;19.20;99.90;;;;;;5102802;28;20126;-65
2023/08/25 02:58:18;;;;;;;28.15;25.40;;;19.10;99.90;;;;;;5103601;27;20039;-66
2023/08/25 03:00:43;;;;;;;28.50;25.63;;;19.20;99.90;;;;;;5086827;28;20040;-65
2023/08/25 03:03:09;;;;;;;27.48;24.73;;;19.20;99.90;;;;;;5105642;28;20039;-65
2023/08/25 03:05:35;;;;;;;28.30;25.45;;;19.20;99.90;;;;;;5101276;28;20123;-65
2023/08/25 03:08:01;;;;;;;30.77;27.70;;;19.20;99.90;;;;;;5084013;28;20035;-65
2023/08/25 03:10:26;;;;;;;32.22;25.70;;;19.20;99.90;;;;;;5090690;28;20032;-65
2023/08/25 03:12:52;;;;;;;27.80;25.17;;;19.30;99.90;;;;;;5102952;28;20047;-65
2023/08/25 03:15:18;;;;;;;29.08;26.05;;;19.10;99.90;;;;;;5101480;27;20036;-65
2023/08/25 03:17:43;;;;;;;27.25;24.55;;;19.10;99.90;;;;;;5085891;28;20036;-65
2023/08/25 03:20:10;;;;;;;30.45;27.25;;;19.10;99.90;;;;;;5119097;27;20120;-66
2023/08/25 03:22:35;;;;;;;28.45;25.58;;;19.10;99.90;;;;;;5102973;28;20112;-65
2023/08/25 03:25:01;;;;;;;30.98;27.73;;;19.10;99.90;;;;;;5099701;27;20043;-65
2023/08/25 03:27:28;;;;;;;31.20;28.20;;;19.10;99.90;;;;;;5102690;28;20032;-65
2023/08/25 03:29:53;;;;;;;29.83;26.80;;;19.00;99.90;;;;;;5086172;28;20051;-65
2023/08/25 03:32:19;;;;;;;28.48;25.55;;;19.00;99.90;;;;;;5102001;28;20048;-65
2023/08/25 03:34:45;;;;;;;27.55;24.98;;;19.00;99.90;;;;;;5103375;27;20592;-66
2023/08/25 03:37:11;;;;;;;22.23;20.02;;;19.00;99.90;;;;;;5104849;28;20115;-66
2023/08/25 03:39:37;;;;;;;21.58;19.67;;;18.90;99.90;;;;;;5102509;28;20491;-65
2023/08/25 03:42:03;;;;;;;27.60;24.88;;;18.90;99.90;;;;;;5099453;28;20032;-65
2023/08/25 03:44:28;;;;;;;30.60;27.25;;;18.80;99.90;;;;;;5085378;27;20110;-65
2023/08/25 03:46:54;;;;;;;31.33;28.10;;;18.80;99.90;;;;;;5103369;28;20032;-65
2023/08/25 03:49:20;;;;;;;29.70;26.98;;;18.80;99.90;;;;;;5089201;28;20130;-65
2023/08/25 03:51:45;;;;;;;29.10;26.10;;;18.90;99.90;;;;;;5118629;27;20036;-65
2023/08/25 03:54:11;;;;;;;27.25;23.65;;;18.80;99.90;;;;;;5100674;28;20075;-66
2023/08/25 03:56:38;;;;;;;24.92;22.52;;;18.80;99.90;;;;;;5116849;27;20039;-65
2023/08/25 03:59:03;;;;;;;32.70;29.20;;;18.80;99.90;;;;;;5103683;28;20048;-65
2023/08/25 04:01:29;;;;;;;28.85;25.70;;;18.80;99.90;;;;;;5103384;28;20040;-65
2023/08/25 04:03:54;;;;;;;30.25;27.13;;;18.90;99.90;;;;;;5084098;28;20085;-65
2023/08/25 04:06:20;;;;;;;30.08;27.15;;;18.90;99.90;;;;;;5084613;28;20039;-65
2023/08/25 04:08:45;;;;;;;25.30;23.00;;;18.90;99.90;;;;;;5104011;28;20118;-66
2023/08/25 04:11:14;;;;;;;24.88;22.48;;;18.80;99.90;;;;;;5088396;28;20482;-66
2023/08/25 04:13:39;;;;;;;31.10;27.88;;;18.90;99.90;;;;;;5107290;28;20047;-66
2023/08/25 04:16:05;;;;;;;30.77;27.52;;;18.90;99.90;;;;;;5104184;27;20036;-65
2023/08/25 04:18:30;;;;;;;30.33;27.10;;;18.90;99.90;;;;;;5083021;28;20087;-65
2023/08/25 04:20:56;;;;;;;28.17;25.38;;;18.90;99.90;;;;;;5107050;28;20485;-65
2023/08/25 04:23:24;;;;;;;30.17;26.92;;;19.00;99.90;;;;;;5103352;28;20035;-65
2023/08/25 04:25:50;;;;;;;29.45;26.55;;;19.00;99.90;;;;;;5120884;27;20071;-66
2023/08/25 04:28:16;;;;;;;29.60;26.70;;;18.90;99.90;;;;;;5087616;28;20078;-66
2023/08/25 04:30:42;;;;;;;31.02;27.80;;;18.90;99.90;;;;;;5081489;28;20043;-65
2023/08/25 04:33:07;;;;;;;31.23;28.17;;;19.00;99.90;;;;;;5104139;28;20122;-65
2023/08/25 04:35:35;;;;;;;33.60;30.02;;;19.00;99.90;;;;;;5102812;28;20623;-65
2023/08/25 04:38:00;;;;;;;31.83;28.63;;;19.00;99.90;;;;;;5120595;27;20525;-65
2023/08/25 04:40:26;;;;;;;36.55;29.73;;;19.00;99.90;;;;;;5087532;28;20127;-66
2023/08/25 04:42:52;;;;;;;35.17;29.58;;;19.00;99.90;;;;;;5086517;28;20116;-66
2023/08/25 04:45:17;;;;;;;33.92;30.35;;;19.00;99.90;;;;;;5084440;28;20035;-65
2023/08/25 04:47:43;;;;;;;37.65;32.72;;;19.00;99.90;;;;;;5083776;28;20044;-66
2023/08/25 04:50:08;;;;;;;39.13;34.83;;;19.00;99.90;;;;;;5100663;28;20031;-65
2023/08/25 04:52:35;;;;;;;40.58;33.20;;;19.00;99.90;;;;;;5081516;28;20055;-66
2023/08/25 04:55:03;;;;;;;38.47;33.53;;;19.00;99.90;;;;;;5097772;28;20071;-65
2023/08/25 04:57:28;;;;;;;37.38;33.47;;;19.10;99.90;;;;;;5116024;27;20048;-66
2023/08/25 04:59:54;;;;;;;39.83;33.25;;;19.00;99.90;;;;;;5076932;28;20497;-66
2023/08/25 05:02:20;;;;;;;46.35;36.60;;;19.10;99.90;;;;;;5101884;28;20036;-65
2023/08/25 05:04:45;;;;;;;40.45;36.13;;;19.10;99.90;;;;;;5099424;28;20032;-66
2023/08/25 05:07:11;;;;;;;38.90;34.40;;;19.10;99.90;;;;;;5100884;28;20507;-65
2023/08/25 05:09:37;;;;;;;43.95;36.45;;;19.10;99.90;;;;;;5085110;28;20405;-66
2023/08/25 05:12:02;;;;;;;40.25;35.17;;;19.10;99.90;;;;;;5082645;28;20044;-65
2023/08/25 05:14:28;;;;;;;46.20;37.70;;;19.10;99.90;;;;;;5081055;28;20121;-66
2023/08/25 05:16:53;;;;;;;43.22;36.00;;;19.20;99.90;;;;;;5101615;28;20502;-66
2023/08/25 05:19:20;;;;;;;48.38;37.63;;;19.10;99.90;;;;;;5101772;28;20044;-65
2023/08/25 05:21:46;;;;;;;42.72;36.50;;;19.20;99.90;;;;;;5104210;28;20155;-65
2023/08/25 05:24:18;;;;;;;44.10;36.15;;;19.20;99.90;;;;;;5100920;28;20085;-65
2023/08/25 05:26:47;;;;;;;45.17;36.50;;;19.20;99.90;;;;;;5101551;28;20067;-65
2023/08/25 05:29:13;;;;;;;47.63;37.10;;;19.20;99.90;;;;;;5087613;28;20036;-65
2023/08/25 05:31:39;;;;;;;45.60;35.85;;;19.40;99.90;;;;;;5105700;28;20039;-65
2023/08/25 05:34:04;;;;;;;40.55;36.17;;;19.30;99.90;;;;;;5086674;28;21001;-66
2023/08/25 05:36:30;;;;;;;46.30;33.55;;;19.40;99.90;;;;;;5087356;28;20067;-65
2023/08/25 05:38:56;;;;;;;37.90;34.00;;;19.40;99.90;;;;;;5106149;28;20046;-66
2023/08/25 05:41:21;;;;;;;41.95;35.88;;;19.40;99.90;;;;;;5102941;28;20036;-66
2023/08/25 05:43:47;;;;;;;41.70;35.80;;;19.40;99.90;;;;;;5086535;28;20044;-66
2023/08/25 05:46:12;;;;;;;42.72;35.58;;;19.40;99.90;;;;;;5102481;28;20070;-65
2023/08/25 05:48:39;;;;;;;41.45;35.55;;;19.50;99.90;;;;;;5120940;27;20035;-65
2023/08/25 05:51:04;;;;;;;41.53;35.95;;;19.40;99.90;;;;;;5104715;28;20040;-66
2023/08/25 05:53:30;;;;;;;38.95;34.95;;;19.40;99.90;;;;;;5104111;28;20051;-66
2023/08/25 05:55:57;;;;;;;44.00;39.10;;;19.50;99.90;;;;;;5106173;28;20401;-65
2023/08/25 05:58:22;;;;;;;45.60;38.00;;;19.50;99.90;;;;;;5104272;28;20089;-66
2023/08/25 06:00:48;;;;;;;45.05;40.10;;;19.60;99.90;;;;;;5084782;28;20048;-65
2023/08/25 06:03:16;;;;;;;48.17;39.50;;;19.60;99.90;;;;;;5084664;28;20490;-66
2023/08/25 06:05:51;;;;;;;43.83;36.60;;;19.60;99.90;;;;;;5122446;27;20047;-66
2023/08/25 06:08:17;;;;;;;44.13;37.83;;;19.60;99.90;;;;;;5103245;28;20038;-65
2023/08/25 06:10:43;;;;;;;41.63;35.83;;;19.70;99.90;;;;;;5104284;28;20111;-66
2023/08/25 06:13:08;;;;;;;41.88;37.33;;;19.70;99.90;;;;;;5106679;27;20453;-66
2023/08/25 06:15:34;;;;;;;43.47;36.75;;;19.70;99.90;;;;;;5106904;28;20043;-66
2023/08/25 06:17:59;;;;;;;40.55;36.22;;;19.70;99.90;;;;;;5083445;28;20062;-66
2023/08/25 06:20:25;;;;;;;46.33;35.85;;;19.80;99.90;;;;;;5103928;28;20079;-66
2023/08/25 06:22:51;;;;;;;40.22;35.95;;;19.70;99.90;;;;;;5086339;28;20656;-66
2023/08/25 06:25:16;;;;;;;40.67;35.92;;;19.90;99.90;;;;;;5103559;28;20413;-66
2023/08/25 06:27:42;;;;;;;39.00;34.85;;;19.90;99.90;;;;;;5121106;27;20472;-66
2023/08/25 06:30:08;;;;;;;41.75;35.08;;;20.00;99.90;;;;;;5088462;28;20044;-65
2023/08/25 06:32:33;;;;;;;36.38;32.33;;;20.00;99.90;;;;;;5105650;28;20118;-65
2023/08/25 06:34:59;;;;;;;38.40;34.25;;;20.10;99.90;;;;;;5105650;28;20115;-66
2023/08/25 06:37:25;;;;;;;35.97;32.42;;;20.10;99.90;;;;;;5085931;28;20035;-66
2023/08/25 06:39:50;;;;;;;36.00;32.28;;;20.10;99.90;;;;;;5102340;28;20036;-65
2023/08/25 06:42:19;;;;;;;37.78;33.88;;;20.10;99.90;;;;;;5104942;28;20560;-65
2023/08/25 06:44:45;;;;;;;35.42;31.85;;;20.20;99.90;;;;;;5105264;28;20479;-66
2023/08/25 06:47:11;;;;;;;35.72;32.17;;;20.30;99.90;;;;;;5101148;27;20050;-66
2023/08/25 06:49:37;;;;;;;33.50;30.15;;;20.30;99.90;;;;;;5086396;28;20032;-65
2023/08/25 06:52:03;;;;;;;33.80;30.63;;;20.40;99.90;;;;;;5101182;28;20087;-65
2023/08/25 06:54:28;;;;;;;35.33;29.92;;;20.50;99.90;;;;;;5086484;28;20105;-65
2023/08/25 06:56:54;;;;;;;33.42;30.05;;;20.60;99.90;;;;;;5099908;28;20490;-65
2023/08/25 06:59:19;;;;;;;33.17;29.88;;;20.70;99.90;;;;;;5105188;27;20074;-66
2023/08/25 07:01:45;;;;;;;35.08;31.60;;;20.70;99.90;;;;;;5080488;28;20032;-66
2023/08/25 07:04:11;;;;;;;33.35;30.05;;;20.80;99.90;;;;;;5085782;28;20033;-66
2023/08/25 07:06:37;;;;;;;32.90;29.70;;;20.80;99.90;;;;;;5116169;27;20051;-65
2023/08/25 07:09:03;;;;;;;35.22;29.33;;;20.90;99.90;;;;;;5101431;28;20975;-65
2023/08/25 07:11:29;;;;;;;34.45;31.00;;;20.90;99.90;;;;;;5104114;28;20382;-65
2023/08/25 07:13:55;;;;;;;30.70;27.70;;;21.00;99.90;;;;;;5083880;28;20040;-66
2023/08/25 07:16:20;;;;;;;32.80;29.58;;;21.00;99.90;;;;;;5103839;27;20442;-66
2023/08/25 07:18:46;;;;;;;31.73;28.40;;;21.00;99.90;;;;;;5087514;27;20120;-66
2023/08/25 07:21:12;;;;;;;31.63;28.23;;;21.10;99.90;;;;;;5102029;27;20173;-65
2023/08/25 07:23:41;;;;;;;32.17;27.98;;;21.10;99.90;;;;;;5085396;27;20125;-66
2023/08/25 07:26:06;;;;;;;31.25;28.02;;;21.10;99.90;;;;;;5104394;27;20036;-66
2023/08/25 07:28:32;;;;;;;34.53;28.70;;;21.20;99.90;;;;;;5084750;27;20486;-65
2023/08/25 07:30:59;;;;;;;33.65;30.08;;;21.30;99.90;;;;;;5101926;28;20530;-66
2023/08/25 07:33:25;;;;;;;31.88;27.65;;;21.20;99.90;;;;;;5093344;28;20075;-66
2023/08/25 07:35:51;;;;;;;31.98;28.48;;;21.20;99.90;;;;;;5101172;27;20051;-66
2023/08/25 07:38:17;;;;;;;33.13;28.83;;;21.20;99.90;;;;;;5081719;28;20044;-65
2023/08/25 07:40:43;;;;;;;34.83;28.92;;;21.30;99.90;;;;;;5083806;28;20027;-65
2023/08/25 07:43:08;;;;;;;31.60;28.45;;;21.20;99.90;;;;;;5103273;28;20478;-66
2023/08/25 07:45:35;;;;;;;28.77;25.80;;;21.20;99.90;;;;;;5099364;27;20044;-66
2023/08/25 07:48:01;;;;;;;33.60;28.75;;;21.30;99.90;;;;;;5119404;27;20042;-66
2023/08/25 07:50:31;;;;;;;31.30;28.23;;;21.40;99.90;;;;;;5104093;28;20044;-66
2023/08/25 07:52:57;;;;;;;31.27;28.17;;;21.40;99.90;;;;;;5085743;28;20048;-66
2023/08/25 07:55:23;;;;;;;31.27;28.05;;;21.50;99.90;;;;;;5101386;28;20371;-66
2023/08/25 07:57:49;;;;;;;31.63;28.38;;;21.60;99.90;;;;;;5099652;28;20039;-65
2023/08/25 08:00:18;;;;;;;31.83;28.63;;;21.50;99.90;;;;;;5121338;27;20042;-65
2023/08/25 08:02:45;;;;;;;30.60;27.55;;;21.60;99.90;;;;;;5105310;27;20160;-65
2023/08/25 08:05:11;;;;;;;32.25;28.90;;;21.60;99.90;;;;;;5078093;28;20027;-65
2023/08/25 08:07:37;;;;;;;30.75;27.40;;;21.70;99.90;;;;;;5101347;28;20032;-65
2023/08/25 08:10:05;;;;;;;31.73;28.55;;;21.70;99.90;;;;;;5118706;27;20139;-65
2023/08/25 08:12:31;;;;;;;32.30;27.80;;;21.70;99.90;;;;;;5101141;28;20378;-65
2023/08/25 08:14:56;;;;;;;28.75;25.70;;;21.70;99.90;;;;;;5086660;28;20042;-65
2023/08/25 08:17:22;;;;;;;31.02;26.83;;;21.70;99.90;;;;;;5068244;28;20040;-65
2023/08/25 08:19:48;;;;;;;26.13;23.38;;;21.70;99.90;;;;;;5100880;28;20811;-65
2023/08/25 08:22:14;;;;;;;26.95;24.10;;;21.70;99.90;;;;;;5115165;27;20123;-65
2023/08/25 08:24:47;;;;;;;27.90;25.10;;;21.70;99.90;;;;;;5085800;28;20044;-66
2023/08/25 08:27:15;;;;;;;29.48;26.05;;;21.60;99.90;;;;;;5103244;28;20390;-65
2023/08/25 08:29:45;;;;;;;28.42;25.58;;;21.70;99.90;;;;;;5098654;28;20039;-65
2023/08/25 08:32:12;;;;;;;29.10;25.92;;;21.70;99.90;;;;;;5084236;28;20078;-65
2023/08/25 08:34:38;;;;;;;28.45;25.45;;;21.60;99.90;;;;;;5102517;28;20039;-65
2023/08/25 08:37:05;;;;;;;27.83;25.13;;;21.70;99.90;;;;;;5084674;28;20114;-65
2023/08/25 08:39:32;;;;;;;28.40;25.20;;;21.70;99.90;;;;;;5102812;28;20057;-65
2023/08/25 08:41:59;;;;;;;27.45;23.65;;;21.70;99.90;;;;;;5102617;28;20035;-65
2023/08/25 08:44:26;;;;;;;28.45;25.42;;;21.70;99.90;;;;;;5084678;28;20570;-65
2023/08/25 08:46:53;;;;;;;28.77;25.75;;;21.60;99.90;;;;;;5101089;28;20066;-65
2023/08/25 08:49:22;;;;;;;27.95;25.02;;;21.60;99.90;;;;;;5080669;28;20054;-65
2023/08/25 08:51:49;;;;;;;27.88;25.00;;;21.60;99.90;;;;;;5084745;28;20477;-65
2023/08/25 08:54:15;;;;;;;27.70;24.73;;;21.60;99.90;;;;;;5097511;28;20448;-65
2023/08/25 08:56:41;;;;;;;29.30;25.63;;;21.50;99.90;;;;;;5102365;28;20036;-65
2023/08/25 08:59:07;;;;;;;28.08;25.13;;;21.60;99.90;;;;;;5102120;28;20032;-65
2023/08/25 09:01:33;;;;;;;31.13;27.73;;;21.60;99.90;;;;;;5080579;28;20052;-65
2023/08/25 09:04:02;;;;;;;29.30;26.17;;;21.50;99.90;;;;;;5083608;28;20043;-65
2023/08/25 09:06:37;;;;;;;29.77;26.85;;;21.60;99.90;;;;;;5102021;28;20044;-65
2023/08/25 09:09:05;;;;;;;29.20;26.15;;;21.60;99.90;;;;;;5083474;28;20032;-65
2023/08/25 09:11:31;;;;;;;29.40;26.25;;;21.60;99.90;;;;;;5084972;28;20040;-65
2023/08/25 09:13:58;;;;;;;29.95;26.75;;;21.60;99.90;;;;;;5081419;28;20051;-65
2023/08/25 09:16:25;;;;;;;29.40;26.55;;;21.60;99.90;;;;;;5100327;28;20051;-65
2023/08/25 09:18:52;;;;;;;30.67;27.60;;;21.60;99.90;;;;;;5082871;28;20044;-65
2023/08/25 09:21:20;;;;;;;29.02;26.27;;;21.60;99.90;;;;;;5082025;28;20051;-65
2023/08/25 09:23:58;;;;;;;27.67;24.88;;;21.70;99.90;;;;;;5099929;28;20115;-65
2023/08/25 09:26:25;;;;;;;29.13;26.25;;;21.60;99.90;;;;;;5082086;28;20044;-65
2023/08/25 09:28:57;;;;;;;31.75;25.77;;;21.60;99.90;;;;;;5085625;28;20051;-65
2023/08/25 09:31:27;;;;;;;29.15;25.30;;;21.60;99.90;;;;;;5103850;28;20050;-66
2023/08/25 09:34:00;;;;;;;28.40;25.30;;;21.70;99.90;;;;;;5079677;28;20497;-65
2023/08/25 09:36:26;;;;;;;26.08;23.67;;;21.70;99.90;;;;;;5081729;28;20079;-65
2023/08/25 09:38:52;;;;;;;27.10;24.30;;;21.70;99.90;;;;;;5101132;28;20113;-65
2023/08/25 09:41:28;;;;;;;29.23;24.90;;;21.70;99.90;;;;;;5100827;28;20055;-65
2023/08/25 09:43:58;;;;;;;28.30;25.48;;;21.70;99.90;;;;;;5101287;28;20494;-65
2023/08/25 09:46:34;;;;;;;28.15;24.75;;;21.70;99.90;;;;;;5100367;28;20402;-65
2023/08/25 09:49:04;;;;;;;27.25;24.50;;;21.80;99.90;;;;;;5081201;28;20047;-65
2023/08/25 09:51:39;;;;;;;25.40;22.80;;;21.80;99.90;;;;;;5114784;28;20510;-65
2023/08/25 09:54:16;;;;;;;25.95;23.35;;;21.80;99.90;;;;;;5099171;28;20168;-65
2023/08/25 09:56:43;;;;;;;26.83;24.27;;;21.90;99.90;;;;;;5114871;28;20079;-65
2023/08/25 09:59:11;;;;;;;25.30;22.67;;;22.30;99.90;;;;;;5100749;28;20042;-65
2023/08/25 10:01:38;;;;;;;24.88;22.20;;;22.10;99.90;;;;;;5101343;28;20039;-65
2023/08/25 10:04:04;;;;;;;27.58;24.85;;;22.20;99.90;;;;;;5084038;28;20143;-65
2023/08/25 10:06:32;;;;;;;25.58;23.10;;;22.40;99.90;;;;;;5081645;28;20209;-65
2023/08/25 10:08:59;;;;;;;25.95;23.38;;;22.50;99.90;;;;;;5082645;28;20040;-65
2023/08/25 10:11:30;;;;;;;25.65;22.98;;;22.60;99.90;;;;;;5081870;28;20086;-66
2023/08/25 10:13:59;;;;;;;27.40;24.80;;;22.70;99.90;;;;;;5101499;28;20417;-65
2023/08/25 10:16:27;;;;;;;27.92;25.10;;;22.80;99.90;;;;;;5102799;27;20154;-66
2023/08/25 10:18:58;;;;;;;25.25;22.80;;;22.80;99.90;;;;;;5104845;28;20058;-65
2023/08/25 10:21:30;;;;;;;23.98;21.52;;;22.80;99.90;;;;;;5119636;27;20040;-65
2023/08/25 10:23:59;;;;;;;25.40;22.75;;;22.70;99.90;;;;;;5105556;28;20059;-65
2023/08/25 10:26:25;;;;;;;23.08;20.60;;;22.60;99.90;;;;;;5100869;28;20046;-65
2023/08/25 10:28:52;;;;;;;24.00;20.88;;;22.60;99.90;;;;;;5104163;28;20363;-65
2023/08/25 10:31:18;;;;;;;24.90;20.02;;;22.70;99.90;;;;;;5087781;27;20039;-65
2023/08/25 10:33:48;;;;;;;25.45;21.05;;;22.70;99.90;;;;;;5102021;28;20470;-65
2023/08/25 10:36:15;;;;;;;23.80;20.08;;;22.70;99.90;;;;;;5104579;28;20405;-65
2023/08/25 10:38:44;;;;;;;19.77;17.73;;;22.70;99.90;;;;;;5085349;28;20055;-65
2023/08/25 10:41:13;;;;;;;21.70;19.45;;;22.70;99.90;;;;;;5087739;27;20528;-66
2023/08/25 10:43:40;;;;;;;21.67;19.48;;;22.80;99.90;;;;;;5110099;28;20381;-66
2023/08/25 10:46:07;;;;;;;24.27;16.85;;;22.90;99.90;;;;;;5085490;28;20043;-66
2023/08/25 10:48:32;;;;;;;21.85;17.23;;;23.00;99.90;;;;;;5104466;28;20046;-66
2023/08/25 10:51:15;;;;;;;19.13;16.30;;;23.00;99.90;;;;;;5081770;27;20119;-66
2023/08/25 10:53:45;;;;;;;18.88;16.80;;;23.00;99.90;;;;;;5104847;28;20067;-65
2023/08/25 10:56:14;;;;;;;22.63;17.70;;;22.90;99.90;;;;;;5105486;28;20390;-66
2023/08/25 10:58:41;;;;;;;19.30;16.73;;;22.90;99.90;;;;;;5105496;27;20043;-65
2023/08/25 11:01:07;;;;;;;20.67;18.20;;;22.70;99.90;;;;;;5083967;27;20181;-66
2023/08/25 11:03:47;;;;;;;19.05;17.02;;;22.60;99.90;;;;;;5101145;27;20127;-66
2023/08/25 11:06:45;;;;;;;18.85;17.00;;;22.50;99.90;;;;;;5085068;28;20052;-65
2023/08/25 11:09:26;;;;;;;19.00;17.10;;;22.40;99.90;;;;;;5099951;28;20135;-65
2023/08/25 11:12:03;;;;;;;18.17;16.30;;;22.30;99.90;;;;;;5086386;28;20059;-65
2023/08/25 11:14:39;;;;;;;21.88;17.67;;;22.40;99.90;;;;;;5103572;28;20067;-65
2023/08/25 11:17:09;;;;;;;19.00;17.15;;;22.30;99.90;;;;;;5082510;28;20051;-65
2023/08/25 11:19:37;;;;;;;21.23;17.90;;;22.40;99.90;;;;;;5103418;28;20062;-65
2023/08/25 11:22:05;;;;;;;19.58;16.83;;;22.40;99.90;;;;;;5085985;28;20052;-65
2023/08/25 11:24:32;;;;;;;17.73;15.88;;;22.50;99.90;;;;;;5102898;28;20047;-65
2023/08/25 11:27:16;;;;;;;17.30;15.45;;;22.50;99.90;;;;;;5115652;27;20071;-65
2023/08/25 11:29:45;;;;;;;16.77;14.90;;;22.50;99.90;;;;;;5106729;28;20106;-65
2023/08/25 11:32:11;;;;;;;15.77;14.27;;;22.40;99.90;;;;;;5087360;28;20040;-65
2023/08/25 11:34:37;;;;;;;17.27;15.57;;;22.40;99.90;;;;;;5103989;28;20454;-65
2023/08/25 11:37:03;;;;;;;17.38;15.38;;;22.30;99.90;;;;;;5119047;27;20083;-65
2023/08/25 11:39:29;;;;;;;16.42;14.63;;;22.40;99.90;;;;;;5080459;28;20465;-65
2023/08/25 11:41:55;;;;;;;15.75;14.25;;;22.50;99.90;;;;;;5084258;28;20044;-65
2023/08/25 11:44:25;;;;;;;17.02;14.80;;;22.50;99.90;;;;;;5101443;28;20036;-65
2023/08/25 11:46:53;;;;;;;13.95;12.55;;;22.80;99.90;;;;;;5101791;28;20035;-65
2023/08/25 11:49:20;;;;;;;12.88;11.38;;;22.90;99.90;;;;;;5103316;28;20093;-65
2023/08/25 11:51:48;;;;;;;11.57;10.18;;;23.10;99.90;;;;;;5085896;28;20542;-65
2023/08/25 11:54:13;;;;;;;10.82;9.48;;;23.20;99.90;;;;;;5101726;28;20040;-65
2023/08/25 11:56:39;;;;;;;11.40;10.10;;;23.40;99.90;;;;;;5116759;27;20509;-65
2023/08/25 11:59:07;;;;;;;9.50;8.60;;;23.40;99.90;;;;;;5082545;28;20089;-66
2023/08/25 12:01:35;;;;;;;10.00;8.05;;;23.50;99.90;;;;;;5100461;28;20473;-65
2023/08/25 12:04:19;;;;;;;9.43;8.32;;;23.40;99.90;;;;;;5102605;28;20040;-65
2023/08/25 12:06:44;;;;;;;9.13;7.55;;;23.40;99.90;;;;;;5102738;28;20448;-66
2023/08/25 12:09:10;;;;;;;7.68;5.65;;;23.40;99.90;;;;;;5085735;28;20040;-65
2023/08/25 12:11:35;;;;;;;12.68;9.25;;;23.30;99.90;;;;;;5102664;28;20106;-65
2023/08/25 12:14:01;;;;;;;13.00;11.65;;;23.20;99.90;;;;;;5100674;28;20038;-65
2023/08/25 12:16:28;;;;;;;15.90;14.23;;;23.20;99.90;;;;;;5101225;28;20039;-65
2023/08/25 12:18:54;;;;;;;16.83;15.10;;;23.10;99.90;;;;;;5084416;28;20145;-66
2023/08/25 12:21:20;;;;;;;18.73;14.85;;;23.10;99.90;;;;;;5082544;27;20464;-66
2023/08/25 12:23:46;;;;;;;16.48;14.88;;;23.00;99.90;;;;;;5101617;28;20496;-66
2023/08/25 12:26:12;;;;;;;16.58;14.88;;;22.90;99.90;;;;;;5100768;28;20070;-66
2023/08/25 12:28:38;;;;;;;17.30;15.52;;;22.80;99.90;;;;;;5082272;28;20040;-67